Time;durP1;ratioP1;P1;durP2;ratioP2;P2;SDS_P1;SDS_P2;PMS_P1;PMS_P2;Temp;Humidity;BMP_temperature;BMP_pressure;BME280_temperature;BME280_humidity;BME280_pressure;Samples;Min_cycle;Max_cycle;Signal;HPM_P1;HPM_P2
2021/06/28 00:01:28;;;;;;;5.80;4.93;;;20.30;64.40;;;;;;5102359;28;20174;-72
2021/06/28 00:03:54;;;;;;;6.33;5.57;;;20.30;64.40;;;;;;5097848;28;20626;-72
2021/06/28 00:06:20;;;;;;;6.43;5.80;;;20.20;64.70;;;;;;5101017;28;20198;-72
2021/06/28 00:08:47;;;;;;;6.07;5.57;;;20.20;65.30;;;;;;5093097;28;20196;-74
2021/06/28 00:11:13;;;;;;;5.47;4.97;;;20.10;65.20;;;;;;5106511;28;20194;-73
2021/06/28 00:13:41;;;;;;;6.20;5.60;;;20.10;65.60;;;;;;5090299;28;20677;-73
2021/06/28 00:16:07;;;;;;;5.93;5.30;;;20.00;65.60;;;;;;5078198;28;20694;-73
2021/06/28 00:18:34;;;;;;;7.60;5.80;;;19.90;66.50;;;;;;5098082;28;20276;-73
2021/06/28 00:21:00;;;;;;;6.07;5.43;;;20.00;67.30;;;;;;5093938;28;20593;-74
2021/06/28 00:23:25;;;;;;;9.00;5.80;;;19.90;67.70;;;;;;5091172;28;20278;-74
2021/06/28 00:25:51;;;;;;;6.50;5.83;;;19.80;68.40;;;;;;5095604;28;20272;-73
2021/06/28 00:28:17;;;;;;;6.20;5.63;;;19.80;69.00;;;;;;5096822;28;20209;-72
2021/06/28 00:30:44;;;;;;;6.20;5.60;;;19.80;68.60;;;;;;5095553;28;20270;-72
2021/06/28 00:33:13;;;;;;;5.90;5.33;;;19.80;66.90;;;;;;5090700;28;20661;-74
2021/06/28 00:35:39;;;;;;;6.00;5.40;;;19.80;66.00;;;;;;5095499;28;20245;-72
2021/06/28 00:38:06;;;;;;;7.20;6.17;;;19.80;64.90;;;;;;5099008;28;20194;-74
2021/06/28 00:40:33;;;;;;;6.43;5.10;;;19.90;64.60;;;;;;5093724;28;20185;-75
2021/06/28 00:42:59;;;;;;;8.20;5.60;;;19.80;64.60;;;;;;5094658;28;20189;-73
2021/06/28 00:45:33;;;;;;;6.90;5.83;;;19.80;63.90;;;;;;5094258;28;20200;-73
2021/06/28 00:48:03;;;;;;;7.23;6.40;;;19.80;64.40;;;;;;5096371;28;20187;-72
2021/06/28 00:50:30;;;;;;;7.20;5.90;;;19.60;65.30;;;;;;5082484;28;20188;-74
2021/06/28 00:52:59;;;;;;;7.23;5.40;;;19.60;66.30;;;;;;5090027;28;20207;-73
2021/06/28 00:55:25;;;;;;;8.43;5.27;;;19.60;67.20;;;;;;5097606;28;20192;-72
2021/06/28 00:57:51;;;;;;;7.67;6.07;;;19.60;66.70;;;;;;5090742;28;20187;-73
2021/06/28 01:00:18;;;;;;;6.70;6.00;;;19.60;67.10;;;;;;5095792;28;20182;-75
2021/06/28 01:02:44;;;;;;;7.13;5.93;;;19.60;66.90;;;;;;5098583;28;20649;-73
2021/06/28 01:05:14;;;;;;;6.93;5.40;;;19.60;66.40;;;;;;5102659;28;20211;-72
2021/06/28 01:07:41;;;;;;;5.90;5.30;;;19.60;66.30;;;;;;5093199;28;20186;-73
2021/06/28 01:10:07;;;;;;;7.53;5.93;;;19.60;68.10;;;;;;5107994;28;20193;-74
2021/06/28 01:12:33;;;;;;;7.53;5.60;;;19.50;67.70;;;;;;5103003;28;20674;-73
2021/06/28 01:15:01;;;;;;;8.43;6.23;;;19.50;68.30;;;;;;5100157;28;20188;-74
2021/06/28 01:17:27;;;;;;;6.37;5.77;;;19.40;69.70;;;;;;5092600;28;20277;-75
2021/06/28 01:19:58;;;;;;;5.87;5.27;;;19.40;70.60;;;;;;5094332;28;20198;-79
2021/06/28 01:22:28;;;;;;;6.57;5.97;;;19.30;71.40;;;;;;5093513;28;20199;-73
2021/06/28 01:24:56;;;;;;;7.90;5.57;;;19.30;71.60;;;;;;5096478;28;20696;-73
2021/06/28 01:27:22;;;;;;;6.30;5.70;;;19.30;72.30;;;;;;5095620;28;20191;-73
2021/06/28 01:29:48;;;;;;;8.57;6.33;;;19.20;73.00;;;;;;5106398;28;20176;-73
2021/06/28 01:32:13;;;;;;;6.87;5.83;;;19.30;72.30;;;;;;5098746;28;20209;-73
2021/06/28 01:34:39;;;;;;;6.40;5.77;;;19.30;72.30;;;;;;5094052;28;20269;-73
2021/06/28 01:37:22;;;;;;;8.67;6.50;;;19.30;72.30;;;;;;5100535;28;20258;-73
2021/06/28 01:39:49;;;;;;;7.23;6.10;;;19.30;72.30;;;;;;5102887;28;20255;-73
2021/06/28 01:42:15;;;;;;;7.37;6.03;;;19.20;70.80;;;;;;5097356;28;20207;-76
2021/06/28 01:44:41;;;;;;;8.23;6.47;;;19.30;70.10;;;;;;5098879;28;20190;-73
2021/06/28 01:47:07;;;;;;;6.13;5.53;;;19.20;70.00;;;;;;5095898;28;20195;-73
2021/06/28 01:49:32;;;;;;;7.17;6.17;;;19.20;69.90;;;;;;5095803;28;20621;-73
2021/06/28 01:51:58;;;;;;;6.07;5.43;;;19.20;70.70;;;;;;5094336;28;20218;-73
2021/06/28 01:54:27;;;;;;;6.73;6.03;;;19.30;72.30;;;;;;5096534;28;20639;-72
2021/06/28 01:56:53;;;;;;;6.67;5.30;;;19.30;72.30;;;;;;5096688;28;20193;-74
2021/06/28 01:59:24;;;;;;;6.40;5.80;;;19.30;69.90;;;;;;5098509;28;20232;-73
2021/06/28 02:01:50;;;;;;;6.07;5.30;;;19.20;70.50;;;;;;5097873;28;20181;-74
2021/06/28 02:04:18;;;;;;;6.80;4.97;;;19.20;70.50;;;;;;5103302;28;20181;-72
2021/06/28 02:06:44;;;;;;;7.80;6.00;;;19.20;69.80;;;;;;5097378;28;20208;-73
2021/06/28 02:09:10;;;;;;;6.97;6.30;;;19.10;70.40;;;;;;5099560;28;20198;-74
2021/06/28 02:11:35;;;;;;;7.77;6.07;;;19.10;71.20;;;;;;5096793;28;20238;-73
2021/06/28 02:14:01;;;;;;;8.13;6.50;;;19.20;71.30;;;;;;5095520;28;20184;-73
2021/06/28 02:16:26;;;;;;;8.60;5.77;;;19.10;72.10;;;;;;5095585;28;20251;-73
2021/06/28 02:18:52;;;;;;;7.00;5.97;;;19.00;72.50;;;;;;5096058;28;20285;-73
2021/06/28 02:21:18;;;;;;;10.80;6.10;;;19.00;72.70;;;;;;5091674;28;20188;-74
2021/06/28 02:23:43;;;;;;;7.03;5.90;;;19.00;73.70;;;;;;5098590;28;20203;-73
2021/06/28 02:26:11;;;;;;;8.77;6.03;;;19.00;72.90;;;;;;5093778;28;20196;-73
2021/06/28 02:28:43;;;;;;;7.90;5.43;;;19.00;72.00;;;;;;5098512;28;20253;-73
2021/06/28 02:31:11;;;;;;;6.57;5.77;;;19.10;73.90;;;;;;5098029;28;20223;-73
2021/06/28 02:33:38;;;;;;;7.17;5.73;;;19.20;74.10;;;;;;5093246;28;20212;-73
2021/06/28 02:36:05;;;;;;;6.77;5.23;;;19.20;72.20;;;;;;5096594;28;20189;-75
2021/06/28 02:38:32;;;;;;;6.47;5.87;;;19.20;73.20;;;;;;5091172;28;20190;-72
2021/06/28 02:40:58;;;;;;;6.87;6.00;;;19.10;74.10;;;;;;5098455;28;20199;-73
2021/06/28 02:43:24;;;;;;;6.90;6.17;;;19.10;73.80;;;;;;5099295;28;20219;-73
2021/06/28 02:45:50;;;;;;;11.23;5.83;;;19.10;74.30;;;;;;5097950;28;20185;-73
2021/06/28 02:48:15;;;;;;;6.50;5.70;;;19.00;74.20;;;;;;5093181;28;20197;-73
2021/06/28 02:50:42;;;;;;;6.10;5.47;;;19.00;74.90;;;;;;5077136;28;20276;-73
2021/06/28 02:53:08;;;;;;;6.10;5.50;;;19.00;75.20;;;;;;5097593;28;20209;-73
2021/06/28 02:55:34;;;;;;;7.67;5.63;;;19.00;75.30;;;;;;5093265;28;20591;-73
2021/06/28 02:58:00;;;;;;;9.83;6.00;;;19.10;72.60;;;;;;5094540;28;20624;-73
2021/06/28 03:00:27;;;;;;;8.47;5.30;;;19.10;72.80;;;;;;5096469;28;20194;-73
2021/06/28 03:02:52;;;;;;;7.40;5.67;;;19.00;72.80;;;;;;5100872;28;20239;-73
2021/06/28 03:05:19;;;;;;;5.73;5.23;;;19.00;73.00;;;;;;5100843;28;20189;-73
2021/06/28 03:07:44;;;;;;;7.17;5.37;;;19.10;75.20;;;;;;5094024;28;20241;-76
2021/06/28 03:10:12;;;;;;;6.00;5.40;;;19.00;75.50;;;;;;5094062;28;20183;-73
2021/06/28 03:12:39;;;;;;;8.07;5.70;;;19.00;76.00;;;;;;5093383;28;20197;-73
2021/06/28 03:15:08;;;;;;;8.03;6.20;;;19.00;76.10;;;;;;5094406;28;20190;-72
2021/06/28 03:17:34;;;;;;;5.80;5.20;;;19.00;75.90;;;;;;5097536;28;20240;-73
2021/06/28 03:19:59;;;;;;;6.27;5.13;;;19.00;75.70;;;;;;5097754;28;20231;-75
2021/06/28 03:22:25;;;;;;;5.93;5.37;;;19.00;75.70;;;;;;5100057;28;20210;-73
2021/06/28 03:24:51;;;;;;;6.87;5.50;;;19.00;76.10;;;;;;5096871;28;20189;-75
2021/06/28 03:27:17;;;;;;;6.77;5.63;;;19.00;76.00;;;;;;5100531;28;20192;-76
2021/06/28 03:29:42;;;;;;;6.70;5.67;;;19.00;76.20;;;;;;5098994;28;20282;-73
2021/06/28 03:32:08;;;;;;;6.00;5.50;;;18.90;76.40;;;;;;5089775;28;20205;-72
2021/06/28 03:34:34;;;;;;;7.93;5.53;;;19.00;77.40;;;;;;5099409;28;20674;-73
2021/06/28 03:36:59;;;;;;;5.90;5.30;;;18.90;77.70;;;;;;5095208;28;20182;-72
2021/06/28 03:39:25;;;;;;;8.90;5.90;;;18.90;78.10;;;;;;5086855;28;20243;-73
2021/06/28 03:41:50;;;;;;;7.17;5.87;;;18.80;78.60;;;;;;5087854;28;20267;-73
2021/06/28 03:44:16;;;;;;;6.33;5.43;;;18.90;79.60;;;;;;5101507;28;20269;-72
2021/06/28 03:46:41;;;;;;;6.27;5.50;;;18.90;79.10;;;;;;5095846;28;20241;-73
2021/06/28 03:49:07;;;;;;;6.80;6.03;;;18.90;78.60;;;;;;5089627;28;20636;-74
2021/06/28 03:51:33;;;;;;;6.23;5.63;;;19.00;78.50;;;;;;5080763;28;20194;-73
2021/06/28 03:53:58;;;;;;;6.03;5.40;;;19.00;79.10;;;;;;5091916;28;20303;-73
2021/06/28 03:56:24;;;;;;;6.23;5.63;;;19.10;76.20;;;;;;5095023;28;20186;-73
2021/06/28 03:58:50;;;;;;;9.03;6.63;;;19.10;75.60;;;;;;5101069;28;20204;-73
2021/06/28 04:01:16;;;;;;;7.00;5.60;;;19.10;76.20;;;;;;5088605;28;20236;-76
2021/06/28 04:03:41;;;;;;;8.87;5.77;;;19.20;76.40;;;;;;5094331;28;20243;-73
2021/06/28 04:06:09;;;;;;;6.47;5.80;;;19.20;76.10;;;;;;5101922;28;20190;-73
2021/06/28 04:08:36;;;;;;;8.33;7.17;;;19.10;78.70;;;;;;5101930;28;20570;-73
2021/06/28 04:11:03;;;;;;;7.67;6.87;;;19.20;79.30;;;;;;5097097;28;20193;-73
2021/06/28 04:13:29;;;;;;;9.43;6.50;;;19.20;78.70;;;;;;5104566;28;20294;-76
2021/06/28 04:15:55;;;;;;;7.13;6.43;;;19.30;79.30;;;;;;5091765;28;20310;-73
2021/06/28 04:18:21;;;;;;;6.87;6.17;;;19.30;78.60;;;;;;5084297;28;20273;-72
2021/06/28 04:20:47;;;;;;;7.00;6.30;;;19.30;77.80;;;;;;5095774;28;20222;-72
2021/06/28 04:23:13;;;;;;;6.73;6.13;;;19.30;79.30;;;;;;5102316;28;20192;-73
2021/06/28 04:25:39;;;;;;;7.47;6.73;;;19.30;78.60;;;;;;5088678;28;20207;-74
2021/06/28 04:28:05;;;;;;;7.70;7.00;;;19.40;79.40;;;;;;5100783;28;20187;-73
2021/06/28 04:30:30;;;;;;;8.27;7.13;;;19.50;78.10;;;;;;5098702;28;20185;-73
2021/06/28 04:32:56;;;;;;;6.73;5.97;;;19.50;78.00;;;;;;5094925;28;20254;-75
2021/06/28 04:35:24;;;;;;;8.60;7.43;;;19.60;77.40;;;;;;5094606;28;20240;-74
2021/06/28 04:37:51;;;;;;;8.47;7.33;;;19.70;76.30;;;;;;5096279;28;20203;-75
2021/06/28 04:40:19;;;;;;;9.07;7.30;;;19.80;74.80;;;;;;5100038;28;20238;-74
2021/06/28 04:42:45;;;;;;;7.80;7.07;;;19.80;72.90;;;;;;5098035;28;20659;-73
2021/06/28 04:45:12;;;;;;;8.27;7.30;;;19.90;72.90;;;;;;5100261;28;20193;-73
2021/06/28 04:47:38;;;;;;;7.83;6.73;;;20.10;73.10;;;;;;5099848;28;20212;-73
2021/06/28 04:50:06;;;;;;;8.90;7.70;;;20.30;71.50;;;;;;5102125;28;20213;-74
2021/06/28 04:52:32;;;;;;;8.20;7.37;;;20.40;69.10;;;;;;5099969;28;20245;-73
2021/06/28 04:55:00;;;;;;;8.33;6.90;;;20.60;67.40;;;;;;5094183;28;20274;-75
2021/06/28 04:57:25;;;;;;;8.67;7.33;;;20.70;66.20;;;;;;5102443;28;20276;-73
2021/06/28 04:59:51;;;;;;;8.67;7.00;;;20.90;65.90;;;;;;5098221;28;20295;-73
2021/06/28 05:02:17;;;;;;;7.97;7.17;;;21.20;65.00;;;;;;5096615;28;20648;-77
2021/06/28 05:04:44;;;;;;;8.30;7.33;;;21.40;61.60;;;;;;5098099;28;20189;-73
2021/06/28 05:07:10;;;;;;;7.63;6.83;;;21.60;58.20;;;;;;5093576;28;20195;-73
2021/06/28 05:09:35;;;;;;;9.30;6.70;;;21.70;57.20;;;;;;5101728;28;20187;-73
2021/06/28 05:12:02;;;;;;;7.10;6.40;;;21.80;55.60;;;;;;5100784;28;20208;-74
2021/06/28 05:14:28;;;;;;;7.70;6.80;;;22.00;52.50;;;;;;5104074;28;20184;-73
2021/06/28 05:16:53;;;;;;;9.40;6.47;;;22.10;52.00;;;;;;5094365;28;20192;-77
2021/06/28 05:19:19;;;;;;;7.43;6.70;;;22.30;48.40;;;;;;5097985;28;20199;-74
2021/06/28 05:21:44;;;;;;;8.37;6.23;;;22.20;49.00;;;;;;5094712;28;20712;-74
2021/06/28 05:24:10;;;;;;;7.90;6.13;;;22.30;50.50;;;;;;5105642;28;20185;-73
2021/06/28 05:26:36;;;;;;;9.47;7.67;;;22.30;49.00;;;;;;5089893;28;20584;-73
2021/06/28 05:29:02;;;;;;;11.30;7.50;;;22.40;49.10;;;;;;5099644;28;20221;-73
2021/06/28 05:31:27;;;;;;;9.17;8.23;;;22.40;48.90;;;;;;5094827;27;20189;-73
2021/06/28 05:33:53;;;;;;;10.63;6.70;;;22.50;48.60;;;;;;5086563;28;20209;-73
2021/06/28 05:36:20;;;;;;;9.53;7.00;;;22.50;50.70;;;;;;5090587;28;20222;-72
2021/06/28 05:38:46;;;;;;;7.27;6.67;;;22.60;48.60;;;;;;5088377;28;20332;-73
2021/06/28 05:41:11;;;;;;;7.90;7.10;;;22.80;48.70;;;;;;5097244;28;20196;-76
2021/06/28 05:43:37;;;;;;;10.23;7.60;;;23.20;45.60;;;;;;5102065;28;20238;-73
2021/06/28 05:46:02;;;;;;;8.67;7.77;;;23.50;43.60;;;;;;5091881;28;20214;-73
2021/06/28 05:48:28;;;;;;;8.60;7.47;;;23.80;40.50;;;;;;5090301;28;20192;-73
2021/06/28 05:50:54;;;;;;;9.27;8.20;;;24.00;38.90;;;;;;5095305;28;20313;-73
2021/06/28 05:53:19;;;;;;;8.87;7.40;;;23.50;41.10;;;;;;5091030;28;20218;-76
2021/06/28 05:55:45;;;;;;;8.57;7.77;;;23.50;41.80;;;;;;5093196;28;20222;-74
2021/06/28 05:58:12;;;;;;;8.47;7.00;;;23.20;41.40;;;;;;5093826;28;20250;-74
2021/06/28 06:00:38;;;;;;;8.43;7.53;;;23.20;43.00;;;;;;5093273;28;20626;-73
2021/06/28 06:03:04;;;;;;;8.73;6.90;;;23.00;45.90;;;;;;5087508;28;20274;-73
2021/06/28 06:05:30;;;;;;;7.83;6.93;;;22.90;46.70;;;;;;5085260;28;20202;-73
2021/06/28 06:07:55;;;;;;;9.63;7.77;;;23.00;46.20;;;;;;5091146;28;20216;-74
2021/06/28 06:10:21;;;;;;;7.70;6.93;;;23.30;44.40;;;;;;5091522;28;20244;-74
2021/06/28 06:12:47;;;;;;;9.27;6.90;;;23.50;43.60;;;;;;5099677;28;20204;-74
2021/06/28 06:15:14;;;;;;;9.73;8.20;;;23.60;43.00;;;;;;5096791;28;20203;-74
2021/06/28 06:17:40;;;;;;;10.77;7.63;;;23.80;40.00;;;;;;5100710;28;20543;-74
2021/06/28 06:20:06;;;;;;;10.43;8.70;;;23.90;40.60;;;;;;5099035;28;20192;-73
2021/06/28 06:22:32;;;;;;;9.63;8.60;;;23.90;39.10;;;;;;5093116;28;20181;-74
2021/06/28 06:24:58;;;;;;;9.87;7.13;;;24.00;38.60;;;;;;5093619;28;20196;-73
2021/06/28 06:27:23;;;;;;;8.53;7.03;;;24.20;37.80;;;;;;5098083;28;20194;-74
2021/06/28 06:29:49;;;;;;;9.20;6.97;;;24.40;36.50;;;;;;5097168;28;20283;-74
2021/06/28 06:32:15;;;;;;;7.77;6.50;;;24.70;35.70;;;;;;5092348;28;20219;-73
2021/06/28 06:34:40;;;;;;;8.18;7.07;;;25.10;33.30;;;;;;5091791;28;20190;-74
2021/06/28 06:37:06;;;;;;;6.93;6.25;;;25.60;30.60;;;;;;5093241;28;20187;-74
2021/06/28 06:39:32;;;;;;;8.95;7.35;;;25.80;30.30;;;;;;5092230;28;20221;-73
2021/06/28 06:41:59;;;;;;;8.27;6.38;;;25.60;29.10;;;;;;5096564;28;20252;-73
2021/06/28 06:44:25;;;;;;;7.30;6.60;;;25.50;28.80;;;;;;5098500;28;20189;-73
2021/06/28 06:46:51;;;;;;;7.82;6.70;;;25.40;30.00;;;;;;5097436;28;20531;-73
2021/06/28 06:49:16;;;;;;;7.63;6.47;;;25.40;31.30;;;;;;5094884;28;20191;-73
2021/06/28 06:51:42;;;;;;;7.75;6.65;;;25.40;30.40;;;;;;5091071;28;20225;-73
2021/06/28 06:54:09;;;;;;;8.13;6.90;;;25.30;31.40;;;;;;5092326;28;20635;-74
2021/06/28 06:56:35;;;;;;;8.13;7.30;;;25.30;31.40;;;;;;5094691;28;20206;-76
2021/06/28 06:59:02;;;;;;;8.05;7.25;;;25.50;28.80;;;;;;5092766;28;20705;-74
2021/06/28 07:01:30;;;;;;;7.93;6.65;;;25.50;29.30;;;;;;5093530;28;20211;-73
2021/06/28 07:03:56;;;;;;;8.25;7.45;;;25.60;29.90;;;;;;5088027;28;20281;-73
2021/06/28 07:06:21;;;;;;;7.93;7.13;;;25.60;28.30;;;;;;5090380;28;20263;-74
2021/06/28 07:08:47;;;;;;;8.02;6.70;;;25.60;28.30;;;;;;5093481;28;21938;-74
2021/06/28 07:11:13;;;;;;;7.70;6.90;;;25.90;27.70;;;;;;5096042;28;20195;-73
2021/06/28 07:13:42;;;;;;;8.38;6.57;;;26.20;27.00;;;;;;5097258;28;20671;-74
2021/06/28 07:16:08;;;;;;;7.13;6.38;;;26.30;24.80;;;;;;5088596;28;20180;-73
2021/06/28 07:18:34;;;;;;;6.88;6.28;;;26.40;25.20;;;;;;5092109;28;20208;-73
2021/06/28 07:21:00;;;;;;;8.05;6.22;;;26.40;24.40;;;;;;5097861;28;20183;-75
2021/06/28 07:23:25;;;;;;;7.63;6.88;;;26.20;24.80;;;;;;5094717;28;20235;-74
2021/06/28 07:25:51;;;;;;;7.45;6.65;;;25.80;24.60;;;;;;5093042;28;20195;-75
2021/06/28 07:28:17;;;;;;;7.30;6.60;;;25.50;26.30;;;;;;5092729;28;20248;-74
2021/06/28 07:30:42;;;;;;;6.65;6.03;;;25.50;27.00;;;;;;5084017;28;20221;-73
2021/06/28 07:33:08;;;;;;;10.82;6.00;;;25.70;28.40;;;;;;5089832;28;20599;-76
2021/06/28 07:35:34;;;;;;;7.68;6.72;;;26.10;26.80;;;;;;5083627;28;20206;-74
2021/06/28 07:37:59;;;;;;;7.45;6.32;;;26.50;24.90;;;;;;5096918;28;20196;-73
2021/06/28 07:40:25;;;;;;;8.02;6.45;;;26.40;24.90;;;;;;5096173;28;20225;-73
2021/06/28 07:42:52;;;;;;;7.68;6.72;;;26.20;26.20;;;;;;5089151;28;20286;-73
2021/06/28 07:45:19;;;;;;;7.13;5.80;;;26.30;25.90;;;;;;5081549;28;20217;-73
2021/06/28 07:47:46;;;;;;;6.63;6.03;;;26.40;25.30;;;;;;5095421;28;20191;-73
2021/06/28 07:50:13;;;;;;;6.82;6.13;;;26.50;26.00;;;;;;5092236;28;20191;-73
2021/06/28 07:52:39;;;;;;;8.45;7.25;;;26.50;24.20;;;;;;5096398;28;20242;-73
2021/06/28 07:55:09;;;;;;;7.88;6.85;;;26.50;23.50;;;;;;5088927;28;20270;-73
2021/06/28 07:57:35;;;;;;;8.30;6.78;;;26.40;23.20;;;;;;5096555;28;20229;-73
2021/06/28 08:00:00;;;;;;;6.05;5.35;;;26.00;24.20;;;;;;5088871;28;20265;-73
2021/06/28 08:02:26;;;;;;;7.25;5.80;;;26.00;24.70;;;;;;5092855;28;20491;-74
2021/06/28 08:04:57;;;;;;;7.15;5.95;;;26.20;24.20;;;;;;5097679;28;20192;-74
2021/06/28 08:07:23;;;;;;;7.25;6.10;;;26.10;24.70;;;;;;5098172;28;20637;-73
2021/06/28 08:09:48;;;;;;;9.83;6.67;;;26.20;24.80;;;;;;5094302;28;20194;-74
2021/06/28 08:12:14;;;;;;;8.25;6.20;;;26.00;24.70;;;;;;5096106;28;20224;-74
2021/06/28 08:14:40;;;;;;;9.85;6.65;;;25.90;25.70;;;;;;5098457;28;20615;-73
2021/06/28 08:17:05;;;;;;;5.97;5.38;;;26.00;25.90;;;;;;5107101;28;20198;-72
2021/06/28 08:19:31;;;;;;;6.07;5.47;;;26.30;25.80;;;;;;5088223;28;20647;-73
2021/06/28 08:21:56;;;;;;;7.90;5.75;;;26.60;25.00;;;;;;5092950;28;20181;-72
2021/06/28 08:24:22;;;;;;;6.50;5.07;;;26.90;20.80;;;;;;5097951;28;20552;-72
2021/06/28 08:26:51;;;;;;;5.60;5.10;;;26.70;22.20;;;;;;5103570;28;20199;-73
2021/06/28 08:29:17;;;;;;;4.95;4.55;;;26.80;21.80;;;;;;5096203;28;20192;-73
2021/06/28 08:31:45;;;;;;;4.70;4.30;;;27.00;20.20;;;;;;5087665;28;20223;-72
2021/06/28 08:34:11;;;;;;;4.93;4.13;;;27.30;20.10;;;;;;5084300;28;20227;-71
2021/06/28 08:36:37;;;;;;;5.85;4.40;;;27.40;17.60;;;;;;5084201;28;20181;-73
2021/06/28 08:39:04;;;;;;;4.82;3.72;;;27.70;17.30;;;;;;5089715;28;20200;-71
2021/06/28 08:41:30;;;;;;;4.78;4.38;;;27.50;15.50;;;;;;5085682;28;22017;-72
2021/06/28 08:43:56;;;;;;;4.63;4.05;;;27.40;16.40;;;;;;5089218;28;20278;-71
2021/06/28 08:46:22;;;;;;;4.60;4.20;;;27.50;17.70;;;;;;5083495;28;20191;-72
2021/06/28 08:48:48;;;;;;;4.18;3.78;;;27.80;16.70;;;;;;5084433;28;20253;-72
2021/06/28 08:51:14;;;;;;;6.82;4.22;;;27.90;15.30;;;;;;5079831;28;20267;-71
2021/06/28 08:53:40;;;;;;;4.88;4.35;;;28.00;14.10;;;;;;5080984;28;20224;-71
2021/06/28 08:56:09;;;;;;;4.45;4.05;;;27.70;14.80;;;;;;5083261;28;20678;-72
2021/06/28 08:58:37;;;;;;;5.13;3.92;;;27.50;15.50;;;;;;5085753;28;20208;-72
2021/06/28 09:01:03;;;;;;;4.93;4.53;;;27.50;16.10;;;;;;5086763;28;20195;-72
2021/06/28 09:03:29;;;;;;;5.30;4.18;;;27.60;16.90;;;;;;5080184;28;20254;-71
2021/06/28 09:06:10;;;;;;;5.25;4.55;;;27.50;17.60;;;;;;5082166;28;20192;-72
2021/06/28 09:08:37;;;;;;;4.82;4.40;;;27.70;18.70;;;;;;5094979;28;20177;-71
2021/06/28 09:11:04;;;;;;;4.70;4.30;;;27.90;18.50;;;;;;5094663;28;20192;-71
2021/06/28 09:13:45;;;;;;;5.07;4.45;;;28.10;16.10;;;;;;5100704;28;20219;-71
2021/06/28 09:16:13;;;;;;;4.85;4.45;;;28.30;16.20;;;;;;5095538;28;20246;-72
2021/06/28 09:18:56;;;;;;;5.45;3.78;;;28.00;15.20;;;;;;5094300;28;20640;-70
2021/06/28 09:21:34;;;;;;;5.07;4.68;;;27.90;15.40;;;;;;5097868;28;20204;-71
2021/06/28 09:24:02;;;;;;;6.85;4.30;;;28.30;14.10;;;;;;5094786;28;20218;-71
2021/06/28 09:26:33;;;;;;;4.70;4.30;;;28.40;14.60;;;;;;5099028;28;20196;-72
2021/06/28 09:29:00;;;;;;;5.05;4.47;;;28.80;13.80;;;;;;5101463;28;20539;-71
2021/06/28 09:31:42;;;;;;;6.00;4.20;;;29.20;12.70;;;;;;5097580;28;20187;-71
2021/06/28 09:34:14;;;;;;;6.25;4.28;;;29.30;11.20;;;;;;5086218;28;20216;-71
2021/06/28 09:36:46;;;;;;;4.70;4.30;;;29.50;11.30;;;;;;5099152;28;20196;-71
2021/06/28 09:39:19;;;;;;;3.78;3.47;;;29.50;10.70;;;;;;5100855;28;20325;-71
2021/06/28 09:41:45;;;;;;;3.22;3.03;;;29.40;8.90;;;;;;5099923;28;20188;-71
2021/06/28 09:44:10;;;;;;;4.03;3.63;;;29.40;10.30;;;;;;5102659;28;20338;-72
2021/06/28 09:46:37;;;;;;;4.18;3.80;;;29.30;10.70;;;;;;5103898;28;20204;-72
2021/06/28 09:49:05;;;;;;;5.05;4.10;;;29.20;10.50;;;;;;5095600;28;20287;-72
2021/06/28 09:51:36;;;;;;;3.63;3.33;;;29.20;10.50;;;;;;5099548;28;20275;-72
2021/06/28 09:54:10;;;;;;;3.60;3.30;;;29.50;10.70;;;;;;5101928;28;20611;-72
2021/06/28 09:56:36;;;;;;;3.80;3.40;;;29.60;9.50;;;;;;5095911;28;20840;-72
2021/06/28 09:59:23;;;;;;;3.50;3.20;;;29.70;8.30;;;;;;5098758;28;20235;-72
2021/06/28 10:02:13;;;;;;;5.47;3.33;;;29.60;6.60;;;;;;5102334;28;20242;-72
2021/06/28 10:05:01;;;;;;;3.72;3.28;;;29.20;6.40;;;;;;5100222;28;20227;-71
2021/06/28 10:07:31;;;;;;;3.60;2.90;;;29.00;7.20;;;;;;5099262;28;20540;-72
2021/06/28 10:10:09;;;;;;;3.40;3.10;;;29.00;7.50;;;;;;5097119;28;20189;-72
2021/06/28 10:12:35;;;;;;;2.97;2.70;;;29.00;6.30;;;;;;5102126;28;20728;-71
2021/06/28 10:15:01;;;;;;;2.90;2.70;;;29.10;6.30;;;;;;5103187;28;20199;-72
2021/06/28 10:17:28;;;;;;;2.75;2.55;;;29.00;7.50;;;;;;5098767;28;20294;-67
2021/06/28 10:19:54;;;;;;;4.07;2.97;;;29.10;6.30;;;;;;5093638;28;20515;-67
2021/06/28 10:22:20;;;;;;;2.92;2.70;;;29.40;6.10;;;;;;5094485;28;20201;-67
2021/06/28 10:24:45;;;;;;;3.80;2.85;;;29.70;5.70;;;;;;5100711;28;20303;-69
2021/06/28 10:27:11;;;;;;;3.50;3.20;;;30.10;5.20;;;;;;5097175;28;20181;-68
2021/06/28 10:29:37;;;;;;;3.28;2.97;;;30.50;4.40;;;;;;5101854;28;20242;-68
2021/06/28 10:32:06;;;;;;;2.90;2.70;;;30.70;2.90;;;;;;5101661;28;20288;-68
2021/06/28 10:34:32;;;;;;;3.38;2.80;;;30.60;3.00;;;;;;5099692;28;20645;-70
2021/06/28 10:37:00;;;;;;;3.30;2.50;;;30.80;3.10;;;;;;5077249;28;20231;-71
2021/06/28 10:39:30;;;;;;;3.13;2.70;;;30.90;3.10;;;;;;5091036;28;20224;-68
2021/06/28 10:41:56;;;;;;;2.90;2.67;;;31.00;3.20;;;;;;5094353;28;20291;-75
2021/06/28 10:44:23;;;;;;;3.40;3.10;;;31.00;2.70;;;;;;5079167;22;20339;-74
2021/06/28 10:46:52;;;;;;;3.70;3.25;;;31.00;2.70;;;;;;5000316;23;20232;-74
2021/06/28 10:49:52;;;;;;;3.90;3.08;;;31.00;3.20;;;;;;4983689;28;20559;-67
2021/06/28 10:52:41;;;;;;;2.70;2.50;;;31.00;3.20;;;;;;4983970;28;20228;-74
2021/06/28 10:55:23;;;;;;;3.25;2.95;;;30.90;2.60;;;;;;5285361;22;20241;-74
2021/06/28 10:57:54;;;;;;;2.83;2.55;;;30.60;3.80;;;;;;5072307;28;20189;-74
2021/06/28 11:00:50;;;;;;;2.50;2.30;;;30.50;4.00;;;;;;5057056;28;20539;-74
2021/06/28 11:03:30;;;;;;;2.95;2.67;;;30.20;3.60;;;;;;5177949;22;20339;-73
2021/06/28 11:06:16;;;;;;;2.95;2.65;;;30.20;4.10;;;;;;5120426;22;20232;-73
2021/06/28 11:09:08;;;;;;;2.85;2.65;;;30.10;5.70;;;;;;5088513;22;20233;-74
2021/06/28 11:11:42;;;;;;;3.75;2.67;;;30.00;5.10;;;;;;5231829;22;20238;-74
2021/06/28 11:14:08;;;;;;;2.75;2.33;;;30.20;5.60;;;;;;4997047;28;20227;-74
2021/06/28 11:16:34;;;;;;;3.40;3.10;;;30.30;5.90;;;;;;4997785;28;20199;-74
2021/06/28 11:19:49;;;;;;;2.97;2.75;;;30.30;5.00;;;;;;4992590;28;20236;-74
2021/06/28 11:22:33;;;;;;;2.55;2.35;;;30.00;4.40;;;;;;4994776;28;20204;-74
2021/06/28 11:25:08;;;;;;;3.95;2.72;;;29.60;4.30;;;;;;5182210;22;20231;-73
2021/06/28 11:27:44;;;;;;;2.42;2.22;;;29.90;5.90;;;;;;4996330;28;20731;-74
2021/06/28 11:30:13;;;;;;;4.40;2.40;;;30.00;3.60;;;;;;4993538;28;20203;-74
2021/06/28 11:32:58;;;;;;;2.47;2.28;;;30.30;4.50;;;;;;4994147;28;20211;-74
2021/06/28 11:35:41;;;;;;;2.53;2.33;;;30.60;4.90;;;;;;4993727;28;20321;-74
2021/06/28 11:45:54;;;;;;;2.50;1.98;;;32.20;1.00;;;;;;5603863;22;20263;-73
2021/06/28 11:48:37;;;;;;;2.53;2.33;;;32.40;2.10;;;;;;5057489;28;20217;-73
2021/06/28 11:51:15;;;;;;;1.90;1.80;;;33.00;1.00;;;;;;5050660;22;20234;-73
2021/06/28 11:53:43;;;;;;;2.28;2.05;;;33.20;1.00;;;;;;5060709;28;20703;-73
2021/06/28 11:56:18;;;;;;;3.50;2.40;;;33.60;1.00;;;;;;5042634;28;20221;-74
2021/06/28 11:59:02;;;;;;;2.97;2.22;;;34.70;1.00;;;;;;5059556;28;20232;-74
2021/06/28 12:01:34;;;;;;;2.00;1.60;;;35.60;1.00;;;;;;5147357;22;20331;-74
2021/06/28 12:04:01;;;;;;;1.92;1.83;;;36.30;1.00;;;;;;5086059;28;20249;-74
2021/06/28 12:06:37;;;;;;;2.25;2.05;;;36.80;1.00;;;;;;5089417;28;20192;-74
2021/06/28 12:09:15;;;;;;;1.85;1.75;;;36.50;1.00;;;;;;5071662;28;20192;-74
2021/06/28 12:11:47;;;;;;;1.58;1.48;;;37.50;1.00;;;;;;5104124;22;20224;-74
2021/06/28 12:14:26;;;;;;;1.58;1.48;;;37.70;1.00;;;;;;5093360;22;20296;-74
2021/06/28 12:16:51;;;;;;;2.30;1.77;;;37.10;1.00;;;;;;5083628;28;20649;-74
2021/06/28 12:19:17;;;;;;;1.95;1.40;;;37.60;1.00;;;;;;5087887;28;20201;-74
2021/06/28 12:21:43;;;;;;;1.90;1.50;;;38.20;1.00;;;;;;5091076;28;20279;-74
2021/06/28 12:24:15;;;;;;;2.17;1.70;;;38.40;1.00;;;;;;5089556;28;20199;-74
2021/06/28 12:26:59;;;;;;;2.30;2.13;;;39.20;1.00;;;;;;5093294;28;20201;-74
2021/06/28 12:29:31;;;;;;;2.47;2.20;;;38.80;1.00;;;;;;5066059;28;20275;-73
2021/06/28 12:32:23;;;;;;;1.92;1.83;;;38.20;1.00;;;;;;5086851;28;20188;-75
2021/06/28 12:34:56;;;;;;;2.60;1.80;;;38.20;1.00;;;;;;5119109;22;20567;-75
2021/06/28 12:37:32;;;;;;;2.88;1.70;;;37.70;1.00;;;;;;5048498;28;20770;-75
2021/06/28 12:40:13;;;;;;;1.80;1.70;;;38.00;1.00;;;;;;5147154;22;20229;-75
2021/06/28 12:42:44;;;;;;;1.98;1.88;;;38.70;1.00;;;;;;5188103;22;20770;-75
2021/06/28 12:45:13;;;;;;;3.63;2.03;;;38.50;1.00;;;;;;5056372;28;20198;-75
2021/06/28 12:47:40;;;;;;;2.53;1.80;;;38.60;1.00;;;;;;5056596;28;20205;-74
2021/06/28 12:50:07;;;;;;;2.38;2.17;;;38.90;1.00;;;;;;5058432;28;20195;-74
2021/06/28 12:52:37;;;;;;;2.20;2.10;;;38.30;1.00;;;;;;5059271;28;20222;-73
2021/06/28 12:55:03;;;;;;;1.90;1.80;;;38.10;1.00;;;;;;5055764;28;20190;-74
2021/06/28 12:57:29;;;;;;;2.35;2.15;;;37.10;1.00;;;;;;5058317;22;20318;-74
2021/06/28 12:59:55;;;;;;;2.53;2.30;;;36.70;1.00;;;;;;5015128;28;20210;-73
2021/06/28 13:02:32;;;;;;;2.97;2.45;;;36.50;1.00;;;;;;5026845;28;20194;-74